Time;durP1;ratioP1;P1;durP2;ratioP2;P2;SDS_P1;SDS_P2;PMS_P1;PMS_P2;Temp;Humidity;BMP_temperature;BMP_pressure;BME280_temperature;BME280_humidity;BME280_pressure;Samples;Min_cycle;Max_cycle;Signal;HPM_P1;HPM_P2
2023/08/26 00:00:30;;;;;;;6.05;4.85;;;;;;;20.99;100.00;97805.44;4173460;28;20052;-74
2023/08/26 00:02:30;;;;;;;7.30;4.43;;;;;;;20.98;100.00;97801.06;4174969;28;20037;-74
2023/08/26 00:04:32;;;;;;;5.95;4.72;;;;;;;20.94;100.00;97789.97;4176046;28;20041;-74
2023/08/26 00:06:34;;;;;;;6.53;4.43;;;;;;;20.93;100.00;97802.44;4175718;28;20041;-74
2023/08/26 00:08:34;;;;;;;5.53;4.22;;;;;;;20.93;100.00;97801.66;4175814;28;20045;-74
2023/08/26 00:10:35;;;;;;;6.72;3.97;;;;;;;20.92;100.00;97809.31;4175510;28;20380;-74
2023/08/26 00:12:35;;;;;;;7.22;3.60;;;;;;;20.92;100.00;97792.44;4174630;28;20064;-73
2023/08/26 00:14:35;;;;;;;4.90;3.63;;;;;;;20.90;100.00;97800.56;4176437;28;20045;-74
2023/08/26 00:16:36;;;;;;;8.43;3.25;;;;;;;20.80;100.00;97793.38;4175349;28;20095;-74
2023/08/26 00:18:36;;;;;;;5.20;3.05;;;;;;;20.72;100.00;97784.44;4175413;28;20068;-74
2023/08/26 00:20:38;;;;;;;6.00;3.10;;;;;;;20.61;100.00;97780.50;4175261;28;20231;-74
2023/08/26 00:22:38;;;;;;;5.40;3.05;;;;;;;20.51;100.00;97776.06;4174521;28;20041;-74
2023/08/26 00:24:39;;;;;;;3.92;2.65;;;;;;;20.40;100.00;97780.06;4175100;28;20113;-74
2023/08/26 00:26:39;;;;;;;3.22;2.80;;;;;;;20.32;100.00;97769.56;4175272;28;20040;-74
2023/08/26 00:28:39;;;;;;;9.32;3.33;;;;;;;20.27;100.00;97772.94;4175386;28;20041;-74
2023/08/26 00:30:40;;;;;;;6.50;3.15;;;;;;;20.22;100.00;97779.97;4175245;28;20144;-73
2023/08/26 00:32:40;;;;;;;5.80;3.15;;;;;;;20.19;100.00;97792.91;4174536;28;20123;-73
2023/08/26 00:34:40;;;;;;;7.00;3.33;;;;;;;20.15;100.00;97797.88;4175128;28;20080;-74
2023/08/26 00:36:41;;;;;;;5.18;3.00;;;;;;;20.10;100.00;97778.78;4175148;28;20065;-74
2023/08/26 00:38:41;;;;;;;5.47;2.53;;;;;;;20.11;100.00;97774.75;4175105;28;20507;-74
2023/08/26 00:40:41;;;;;;;4.43;3.00;;;;;;;19.99;100.00;97766.41;4175326;28;20323;-74
2023/08/26 00:42:42;;;;;;;5.72;2.97;;;;;;;19.96;100.00;97789.78;4174501;28;20469;-74
2023/08/26 00:44:42;;;;;;;4.45;2.85;;;;;;;19.85;100.00;97792.97;4175026;28;20477;-74
2023/08/26 00:46:42;;;;;;;4.70;2.80;;;;;;;19.71;100.00;97790.69;4175900;28;20076;-74
2023/08/26 00:48:43;;;;;;;5.13;2.80;;;;;;;19.62;100.00;97803.41;4174240;28;20041;-74
2023/08/26 00:50:45;;;;;;;7.85;3.45;;;;;;;19.58;100.00;97811.16;4175096;28;20044;-74
2023/08/26 00:52:46;;;;;;;4.57;2.90;;;;;;;19.57;100.00;97822.84;4174715;28;20055;-74
2023/08/26 00:54:46;;;;;;;6.80;2.83;;;;;;;19.61;100.00;97812.25;4175331;28;20477;-74
2023/08/26 00:56:47;;;;;;;3.42;2.22;;;;;;;19.49;100.00;97821.50;4174942;28;20033;-73
2023/08/26 00:58:47;;;;;;;4.68;2.20;;;;;;;19.45;100.00;97815.25;4174564;28;20045;-74
2023/08/26 01:00:48;;;;;;;4.75;2.55;;;;;;;19.39;100.00;97817.81;4175252;28;20289;-74
2023/08/26 01:02:49;;;;;;;5.20;2.38;;;;;;;19.27;100.00;97804.59;4173525;28;20102;-74
2023/08/26 01:04:50;;;;;;;4.72;2.60;;;;;;;19.26;100.00;97801.03;4174346;28;20467;-74
2023/08/26 01:06:50;;;;;;;4.45;2.53;;;;;;;19.22;100.00;97780.75;4174442;28;20088;-73
2023/08/26 01:08:51;;;;;;;4.18;2.53;;;;;;;19.21;100.00;97778.41;4174777;28;20049;-74
2023/08/26 01:11:09;;;;;;;3.88;2.53;;;;;;;19.21;100.00;97769.97;4174649;28;20683;-74
2023/08/26 01:13:14;;;;;;;5.25;2.33;;;;;;;19.21;100.00;97755.97;4173136;28;20526;-74
2023/08/26 01:15:15;;;;;;;3.85;2.58;;;;;;;19.25;100.00;97728.56;4174791;28;20740;-74
2023/08/26 01:17:16;;;;;;;5.65;2.40;;;;;;;19.23;100.00;97705.81;4174697;28;20037;-74
2023/08/26 01:19:28;;;;;;;4.13;2.35;;;;;;;19.21;100.00;97711.09;4173824;28;20447;-73
2023/08/26 01:21:34;;;;;;;3.88;2.40;;;;;;;19.07;100.00;97724.38;4174347;28;20048;-74
2023/08/26 01:23:44;;;;;;;2.60;2.03;;;;;;;19.01;100.00;97739.41;4173874;28;20053;-74
2023/08/26 01:25:45;;;;;;;3.50;2.20;;;;;;;18.95;100.00;97741.19;4173230;28;20103;-74
2023/08/26 01:27:45;;;;;;;4.20;2.63;;;;;;;18.86;100.00;97747.50;4174263;28;20570;-73
2023/08/26 01:29:45;;;;;;;4.00;2.10;;;;;;;18.79;100.00;97745.75;4174597;28;20167;-74
2023/08/26 01:31:54;;;;;;;2.53;1.88;;;;;;;18.74;100.00;97742.72;4174408;28;20107;-73
2023/08/26 01:34:05;;;;;;;2.28;1.65;;;;;;;18.62;100.00;97743.47;4173180;28;20071;-73
2023/08/26 01:36:10;;;;;;;2.95;2.05;;;;;;;18.52;100.00;97746.16;4172016;28;20472;-74
2023/08/26 01:38:13;;;;;;;4.07;2.00;;;;;;;18.50;100.00;97740.25;4174228;28;20029;-74
2023/08/26 01:40:15;;;;;;;2.17;1.67;;;;;;;18.40;100.00;97735.75;4174006;28;20040;-74
2023/08/26 01:42:19;;;;;;;4.13;1.83;;;;;;;18.38;100.00;97737.47;4174364;28;20036;-74
2023/08/26 01:44:21;;;;;;;6.15;2.30;;;;;;;18.38;100.00;97732.63;4173073;28;20323;-73
2023/08/26 01:46:34;;;;;;;2.70;1.48;;;;;;;18.37;100.00;97738.66;4175236;28;20064;-74
2023/08/26 01:48:34;;;;;;;8.02;2.15;;;;;;;18.33;100.00;97758.38;4173898;28;20040;-74
2023/08/26 01:50:35;;;;;;;2.53;1.90;;;;;;;18.35;100.00;97769.91;4173941;28;20381;-74
2023/08/26 01:52:35;;;;;;;3.08;2.15;;;;;;;18.38;100.00;97771.84;4173464;28;20598;-74
2023/08/26 01:54:35;;;;;;;2.83;2.10;;;;;;;18.40;100.00;97796.59;4174235;28;20076;-74
2023/08/26 01:56:36;;;;;;;5.05;2.17;;;;;;;18.39;100.00;97801.41;4173941;28;20053;-74
2023/08/26 01:58:37;;;;;;;4.72;2.25;;;;;;;18.40;100.00;97813.41;4173606;28;20107;-73
2023/08/26 02:00:37;;;;;;;3.55;2.28;;;;;;;18.42;100.00;97819.31;4174329;28;20040;-73
2023/08/26 02:02:37;;;;;;;3.17;2.20;;;;;;;18.42;100.00;97824.94;4172797;28;20051;-74
2023/08/26 02:04:38;;;;;;;5.30;2.35;;;;;;;18.36;100.00;97833.09;4173825;28;20133;-74
2023/08/26 02:06:40;;;;;;;4.68;1.83;;;;;;;18.31;100.00;97839.25;4173865;28;20797;-74
2023/08/26 02:08:40;;;;;;;2.95;1.80;;;;;;;18.32;100.00;97829.63;4173501;28;20197;-74
2023/08/26 02:10:40;;;;;;;2.38;1.90;;;;;;;18.29;100.00;97824.13;4173906;28;20083;-74
2023/08/26 02:12:41;;;;;;;2.97;1.90;;;;;;;18.29;100.00;97822.13;4172793;28;20068;-73
2023/08/26 02:14:41;;;;;;;3.25;2.00;;;;;;;18.30;100.00;97818.09;4173835;28;20090;-74
2023/08/26 02:16:41;;;;;;;2.78;1.70;;;;;;;18.28;100.00;97814.16;4173593;28;20049;-74
2023/08/26 02:18:42;;;;;;;3.65;1.77;;;;;;;18.29;100.00;97807.31;4173629;28;20041;-74
2023/08/26 02:20:43;;;;;;;3.97;1.95;;;;;;;18.28;100.00;97800.94;4173844;28;20055;-74
2023/08/26 02:22:43;;;;;;;2.70;2.08;;;;;;;18.23;100.00;97804.31;4172562;28;20041;-74
2023/08/26 02:24:43;;;;;;;3.60;2.00;;;;;;;18.28;100.00;97800.16;4171996;28;20041;-74
2023/08/26 02:26:44;;;;;;;3.05;1.98;;;;;;;18.24;100.00;97809.44;4173755;28;20037;-73
2023/08/26 02:28:44;;;;;;;5.80;2.10;;;;;;;18.24;100.00;97803.84;4173599;28;20044;-74
2023/08/26 02:30:45;;;;;;;4.25;2.10;;;;;;;18.26;100.00;97792.19;4172740;28;20044;-74
2023/08/26 02:32:45;;;;;;;3.63;2.10;;;;;;;18.24;100.00;97783.47;4173189;28;20053;-74
2023/08/26 02:34:45;;;;;;;3.83;2.40;;;;;;;18.28;100.00;97774.94;4173281;28;20106;-74
2023/08/26 02:36:46;;;;;;;3.42;2.45;;;;;;;18.20;100.00;97780.78;4173530;28;20400;-74
2023/08/26 02:38:46;;;;;;;3.53;2.70;;;;;;;18.19;100.00;97786.81;4173240;28;20043;-73
2023/08/26 02:40:54;;;;;;;3.85;2.63;;;;;;;18.19;100.00;97781.22;4173094;28;20127;-74
2023/08/26 02:42:54;;;;;;;3.75;2.72;;;;;;;18.19;100.00;97786.81;4172339;28;20045;-74
2023/08/26 02:44:54;;;;;;;5.30;3.28;;;;;;;18.18;100.00;97791.63;4173193;28;20523;-74
2023/08/26 02:46:55;;;;;;;4.40;3.22;;;;;;;18.19;100.00;97792.41;4172560;28;20574;-74
2023/08/26 02:48:56;;;;;;;5.57;2.78;;;;;;;18.19;100.00;97801.59;4173579;28;20047;-74
2023/08/26 02:50:57;;;;;;;6.10;3.20;;;;;;;18.20;100.00;97802.38;4173181;28;20099;-74
2023/08/26 02:52:58;;;;;;;4.72;3.30;;;;;;;18.20;100.00;97805.19;4172060;28;20357;-74
2023/08/26 02:54:58;;;;;;;4.05;2.83;;;;;;;18.20;100.00;97794.78;4173011;28;20073;-73
2023/08/26 02:57:00;;;;;;;3.17;2.65;;;;;;;18.24;100.00;97780.66;4173562;28;20033;-73
2023/08/26 02:59:00;;;;;;;6.10;3.40;;;;;;;18.24;100.00;97780.66;4172900;28;20041;-74
2023/08/26 03:01:01;;;;;;;5.50;2.58;;;;;;;18.24;100.00;97777.88;4172361;28;20064;-74
2023/08/26 03:03:02;;;;;;;3.55;3.17;;;;;;;18.21;100.00;97789.97;4172656;28;20401;-74
2023/08/26 03:05:02;;;;;;;4.78;3.55;;;;;;;18.18;100.00;97793.66;4172837;28;20098;-74
2023/08/26 03:07:03;;;;;;;7.20;3.35;;;;;;;18.13;100.00;97803.41;4172842;28;20037;-74
2023/08/26 03:09:03;;;;;;;5.47;3.10;;;;;;;18.13;100.00;97825.00;4172861;28;20037;-74
2023/08/26 03:11:05;;;;;;;5.28;3.35;;;;;;;18.12;100.00;97820.63;4173156;28;20029;-73
2023/08/26 03:13:10;;;;;;;5.32;3.65;;;;;;;18.08;100.00;97809.53;4171913;28;20047;-74
2023/08/26 03:15:10;;;;;;;6.32;3.38;;;;;;;18.10;100.00;97814.69;4172206;28;20060;-73
2023/08/26 03:17:10;;;;;;;5.47;3.25;;;;;;;18.13;100.00;97809.00;4172795;28;20040;-74
2023/08/26 03:19:11;;;;;;;4.85;3.10;;;;;;;18.15;100.00;97812.13;4172760;28;20489;-74
2023/08/26 03:21:11;;;;;;;4.70;3.25;;;;;;;18.12;100.00;97798.22;4172562;28;20047;-74
2023/08/26 03:23:11;;;;;;;8.05;3.35;;;;;;;18.12;100.00;97817.81;4171574;28;20081;-74
2023/08/26 03:25:12;;;;;;;4.15;2.60;;;;;;;18.14;100.00;97829.38;4172550;28;20056;-74
2023/08/26 03:27:12;;;;;;;5.50;2.95;;;;;;;18.12;100.00;97831.81;4172682;28;20040;-74
2023/08/26 03:29:12;;;;;;;5.30;3.20;;;;;;;18.15;100.00;97850.53;4172255;28;20129;-74
2023/08/26 03:31:13;;;;;;;5.25;3.30;;;;;;;18.17;100.00;97842.47;4172647;28;20449;-74
2023/08/26 03:33:13;;;;;;;5.25;3.20;;;;;;;18.22;100.00;97848.31;4171888;28;20476;-73
2023/08/26 03:35:13;;;;;;;5.93;3.40;;;;;;;18.23;100.00;97851.91;4171870;28;20083;-74
2023/08/26 03:37:14;;;;;;;4.90;2.97;;;;;;;18.22;100.00;97848.31;4172639;28;20044;-74
2023/08/26 03:39:15;;;;;;;5.75;3.42;;;;;;;18.21;100.00;97852.34;4172599;28;20037;-74
2023/08/26 03:41:15;;;;;;;6.95;3.47;;;;;;;18.15;100.00;97870.13;4172022;28;20114;-74
2023/08/26 03:43:15;;;;;;;3.97;3.40;;;;;;;18.13;100.00;97867.00;4171641;28;20068;-74
2023/08/26 03:45:16;;;;;;;7.72;3.40;;;;;;;18.16;100.00;97860.50;4172877;28;20488;-74
2023/08/26 03:47:16;;;;;;;9.80;4.00;;;;;;;18.18;100.00;97852.44;4172176;28;20529;-74
2023/08/26 03:49:16;;;;;;;4.30;3.22;;;;;;;18.11;100.00;97842.22;4172414;28;20132;-74
2023/08/26 03:51:17;;;;;;;6.35;3.55;;;;;;;18.16;100.00;97850.09;4172188;28;20049;-74
2023/08/26 03:53:20;;;;;;;8.13;3.60;;;;;;;18.16;100.00;97852.88;4171515;28;20448;-74
2023/08/26 03:55:20;;;;;;;4.65;3.25;;;;;;;18.13;100.00;97842.59;4172145;28;20125;-73
2023/08/26 03:57:21;;;;;;;7.75;3.60;;;;;;;18.09;100.00;97839.09;4172303;28;20106;-73
2023/08/26 03:59:21;;;;;;;6.25;3.70;;;;;;;18.04;100.00;97833.25;4172639;28;20049;-74
2023/08/26 04:01:23;;;;;;;4.82;3.58;;;;;;;17.97;100.00;97839.84;4171818;28;20079;-74
2023/08/26 04:03:23;;;;;;;8.00;3.42;;;;;;;17.95;100.00;97851.47;4171741;28;20528;-74
2023/08/26 04:05:24;;;;;;;6.72;3.50;;;;;;;17.90;100.00;97852.03;4172518;28;20115;-73
2023/08/26 04:07:24;;;;;;;3.92;3.22;;;;;;;17.88;100.00;97854.50;4171814;28;20084;-73
2023/08/26 04:09:25;;;;;;;5.18;3.40;;;;;;;17.85;100.00;97852.56;4172574;28;20087;-74
2023/08/26 04:11:25;;;;;;;4.55;3.40;;;;;;;17.88;100.00;97851.69;4171986;28;20049;-74
2023/08/26 04:13:27;;;;;;;5.85;3.70;;;;;;;17.85;100.00;97846.97;4171642;28;20051;-74
2023/08/26 04:15:27;;;;;;;5.28;3.50;;;;;;;17.88;100.00;97842.50;4172032;28;20052;-74
2023/08/26 04:17:27;;;;;;;5.95;3.65;;;;;;;17.94;100.00;97826.72;4171917;28;20033;-74
2023/08/26 04:19:29;;;;;;;4.47;3.22;;;;;;;18.00;100.00;97821.38;4158915;28;20084;-74
2023/08/26 04:21:29;;;;;;;6.65;3.20;;;;;;;18.06;100.00;97826.00;4171510;28;20100;-74
2023/08/26 04:23:30;;;;;;;5.00;3.03;;;;;;;18.16;100.00;97821.31;4171482;28;20045;-73
2023/08/26 04:25:31;;;;;;;4.05;2.97;;;;;;;18.26;100.00;97828.59;4171818;28;20049;-74
2023/08/26 04:27:33;;;;;;;4.15;2.53;;;;;;;18.36;100.00;97832.31;4172105;28;20068;-74
2023/08/26 04:29:33;;;;;;;3.92;2.67;;;;;;;18.41;100.00;97829.75;4171912;28;20493;-74
2023/08/26 04:31:33;;;;;;;4.90;2.65;;;;;;;18.44;100.00;97830.88;4171879;28;20059;-74
2023/08/26 04:33:34;;;;;;;5.07;2.58;;;;;;;18.47;100.00;97825.16;4171204;28;20041;-74
2023/08/26 04:35:34;;;;;;;3.38;2.70;;;;;;;18.48;100.00;97837.16;4171927;28;20073;-74
2023/08/26 04:37:35;;;;;;;4.57;2.45;;;;;;;18.50;100.00;97841.06;4172137;28;20508;-73
2023/08/26 04:39:37;;;;;;;3.00;2.40;;;;;;;18.53;100.00;97847.78;4172129;28;20041;-73
2023/08/26 04:41:41;;;;;;;4.53;2.67;;;;;;;18.59;100.00;97850.84;4171492;28;20065;-73
2023/08/26 04:43:41;;;;;;;3.00;2.28;;;;;;;18.60;100.00;97850.38;4170977;28;20056;-74
2023/08/26 04:45:41;;;;;;;3.67;2.00;;;;;;;18.64;100.00;97859.47;4171890;28;20060;-74
2023/08/26 04:47:42;;;;;;;5.60;2.65;;;;;;;18.66;100.00;97857.03;4173319;28;20037;-74
2023/08/26 04:49:42;;;;;;;3.75;2.20;;;;;;;18.71;100.00;97861.31;4175144;28;20095;-74
2023/08/26 04:51:50;;;;;;;3.85;3.38;;;;;;;18.73;100.00;97861.63;4174713;28;20459;-74
2023/08/26 04:53:50;;;;;;;4.47;2.13;;;;;;;18.73;100.00;97864.44;4174253;28;20060;-74
2023/08/26 04:55:51;;;;;;;4.90;2.60;;;;;;;18.74;100.00;97866.78;4174752;28;20049;-73
2023/08/26 04:57:53;;;;;;;3.42;2.50;;;;;;;18.77;100.00;97882.69;4175011;28;20060;-74
2023/08/26 04:59:53;;;;;;;4.80;2.78;;;;;;;18.80;100.00;97898.63;4174589;28;20071;-74
2023/08/26 05:01:53;;;;;;;4.70;3.20;;;;;;;18.79;100.00;97894.25;4174207;28;20076;-74
2023/08/26 05:03:54;;;;;;;5.70;2.90;;;;;;;18.73;100.00;97912.06;4173728;28;20068;-74
2023/08/26 05:05:54;;;;;;;3.95;2.90;;;;;;;18.67;100.00;97897.81;4174211;28;20088;-74
2023/08/26 05:07:55;;;;;;;5.00;3.70;;;;;;;18.57;100.00;97895.31;4174411;28;20075;-73
2023/08/26 05:09:56;;;;;;;8.45;3.47;;;;;;;18.51;100.00;97904.25;4161750;28;20043;-74
2023/08/26 05:11:57;;;;;;;5.80;3.40;;;;;;;18.47;100.00;97900.78;4205891;28;20135;-73
2023/08/26 05:13:57;;;;;;;6.53;3.15;;;;;;;18.41;100.00;97910.19;4173582;28;20041;-73
2023/08/26 05:15:57;;;;;;;6.05;3.33;;;;;;;18.28;100.00;97901.72;4174800;28;20052;-74
2023/08/26 05:17:58;;;;;;;5.22;3.30;;;;;;;18.31;100.00;97908.47;4174830;28;20420;-74
2023/08/26 05:19:58;;;;;;;4.75;3.22;;;;;;;18.25;100.00;97911.81;4174200;28;20053;-74
2023/08/26 05:21:59;;;;;;;4.60;3.50;;;;;;;18.10;100.00;97913.44;4174419;28;20304;-74
2023/08/26 05:24:03;;;;;;;4.78;3.00;;;;;;;18.07;100.00;97916.34;4106488;28;20086;-74
2023/08/26 05:26:03;;;;;;;4.38;2.70;;;;;;;18.02;100.00;97914.06;4182366;28;20484;-74
2023/08/26 05:28:06;;;;;;;3.60;2.90;;;;;;;18.03;100.00;97910.84;4174442;28;20146;-74
2023/08/26 05:30:07;;;;;;;3.72;2.70;;;;;;;18.01;100.00;97910.50;4174465;28;20965;-74
2023/08/26 05:32:07;;;;;;;3.63;2.45;;;;;;;18.02;100.00;97919.69;4174244;28;20056;-74
2023/08/26 05:34:08;;;;;;;4.25;2.58;;;;;;;18.00;100.00;97920.13;4173264;28;20086;-74
2023/08/26 05:36:08;;;;;;;4.38;2.58;;;;;;;18.04;100.00;97925.63;4174327;28;20040;-74
2023/08/26 05:38:09;;;;;;;3.80;2.70;;;;;;;18.05;100.00;97938.41;4174693;28;20605;-74
2023/08/26 05:40:10;;;;;;;3.65;2.50;;;;;;;18.02;100.00;97948.44;4173999;28;20086;-74
2023/08/26 05:42:10;;;;;;;3.60;2.20;;;;;;;18.05;100.00;97941.22;4173731;28;20381;-74
2023/08/26 05:44:11;;;;;;;2.90;2.08;;;;;;;18.09;100.00;97945.47;4173171;28;20126;-74
2023/08/26 05:46:11;;;;;;;3.47;2.30;;;;;;;18.11;100.00;97951.41;4173853;28;20033;-74
2023/08/26 05:48:11;;;;;;;4.47;2.20;;;;;;;18.11;100.00;97950.63;4174877;28;20112;-74
2023/08/26 05:50:12;;;;;;;6.80;2.17;;;;;;;18.13;100.00;97950.97;4173406;28;20506;-73
2023/08/26 05:52:12;;;;;;;3.60;2.30;;;;;;;18.13;100.00;97948.19;4173974;28;20500;-74
2023/08/26 05:54:13;;;;;;;3.08;2.40;;;;;;;18.12;100.00;97953.00;4173491;28;20052;-74
2023/08/26 05:56:13;;;;;;;3.15;2.20;;;;;;;18.16;100.00;97950.88;4173890;28;20202;-74
2023/08/26 05:58:14;;;;;;;3.25;2.28;;;;;;;18.18;100.00;97961.63;4173415;28;20037;-74
2023/08/26 06:00:15;;;;;;;4.95;2.67;;;;;;;18.19;100.00;97963.97;4174100;28;20515;-74
2023/08/26 06:02:15;;;;;;;5.13;2.08;;;;;;;18.23;100.00;97964.69;4159265;28;20060;-74
2023/08/26 06:04:15;;;;;;;2.70;2.13;;;;;;;18.28;100.00;97963.34;4173104;28;20128;-74
2023/08/26 06:06:16;;;;;;;2.92;2.30;;;;;;;18.33;100.00;97964.81;4173978;28;20024;-74
2023/08/26 06:08:16;;;;;;;3.88;2.08;;;;;;;18.40;100.00;97961.84;4160587;28;20472;-74
2023/08/26 06:10:16;;;;;;;4.25;2.22;;;;;;;18.46;100.00;97960.06;4172775;28;20499;-74
2023/08/26 06:12:17;;;;;;;3.72;2.90;;;;;;;18.56;100.00;97972.19;4173406;28;20028;-74
2023/08/26 06:14:17;;;;;;;3.35;2.15;;;;;;;18.64;100.00;97971.53;4173798;28;20040;-74
2023/08/26 06:16:20;;;;;;;3.50;2.30;;;;;;;18.75;100.00;97976.84;4173644;28;20139;-74
2023/08/26 06:18:20;;;;;;;3.40;2.40;;;;;;;18.85;100.00;97972.94;4173371;28;20463;-74
2023/08/26 06:20:22;;;;;;;3.33;2.38;;;;;;;18.91;100.00;97973.97;4173982;28;20047;-74
2023/08/26 06:22:22;;;;;;;4.88;2.63;;;;;;;18.97;100.00;97972.19;4159170;28;20092;-74
2023/08/26 06:24:23;;;;;;;4.55;2.53;;;;;;;19.04;100.00;97982.41;4172024;28;20048;-74
2023/08/26 06:26:23;;;;;;;4.45;2.67;;;;;;;19.05;100.00;97976.34;4173570;28;20045;-74
2023/08/26 06:28:24;;;;;;;3.45;2.83;;;;;;;18.99;100.00;97980.16;4173462;28;20052;-74
2023/08/26 06:30:24;;;;;;;4.65;2.67;;;;;;;18.96;100.00;97981.06;4173619;28;20041;-73
2023/08/26 06:32:25;;;;;;;4.85;2.78;;;;;;;18.96;100.00;97983.88;4172756;28;20047;-74
2023/08/26 06:34:25;;;;;;;4.53;3.00;;;;;;;18.98;100.00;97987.78;4173091;28;20457;-73
2023/08/26 06:36:26;;;;;;;4.00;2.72;;;;;;;18.99;100.00;97999.78;4163626;28;20658;-74
2023/08/26 06:38:26;;;;;;;5.07;2.90;;;;;;;19.01;100.00;98002.91;4172146;28;20158;-73
2023/08/26 06:40:30;;;;;;;6.35;3.20;;;;;;;19.06;100.00;98014.38;4170962;28;20076;-74
2023/08/26 06:42:31;;;;;;;5.45;3.53;;;;;;;19.09;100.00;98010.66;4171513;28;20529;-74
2023/08/26 06:44:31;;;;;;;7.55;3.70;;;;;;;19.16;100.00;98014.50;4175548;28;20078;-74
2023/08/26 06:46:31;;;;;;;6.65;3.75;;;;;;;19.22;100.00;98009.91;4173972;28;20044;-74
2023/08/26 06:48:32;;;;;;;4.85;4.35;;;;;;;19.23;100.00;98003.84;4173029;28;20536;-74
2023/08/26 06:50:32;;;;;;;8.77;4.30;;;;;;;19.22;100.00;98015.53;4173419;28;20286;-73
2023/08/26 06:52:32;;;;;;;5.75;4.40;;;;;;;19.19;100.00;98007.97;4171625;28;20044;-74
2023/08/26 06:54:33;;;;;;;6.78;4.88;;;;;;;19.13;100.00;98012.59;4172769;28;20325;-74
2023/08/26 06:56:34;;;;;;;6.88;5.45;;;;;;;19.14;100.00;98017.75;4171972;28;20049;-74
2023/08/26 06:58:34;;;;;;;9.68;6.75;;;;;;;19.15;100.00;98022.13;4172603;28;20041;-73
2023/08/26 07:00:34;;;;;;;8.30;6.50;;;;;;;19.17;100.00;98021.66;4173142;28;20041;-73
2023/08/26 07:02:35;;;;;;;10.65;7.65;;;;;;;19.27;100.00;98028.97;4172287;28;20045;-73
2023/08/26 07:04:35;;;;;;;10.40;7.70;;;;;;;19.32;100.00;98026.41;4172760;28;20094;-74
2023/08/26 07:06:36;;;;;;;9.43;7.28;;;;;;;19.37;100.00;98022.25;4172531;28;20412;-74
2023/08/26 07:08:37;;;;;;;13.65;8.18;;;;;;;19.41;100.00;98034.16;4172906;28;20093;-74
2023/08/26 07:10:37;;;;;;;10.60;7.95;;;;;;;19.45;100.00;98032.03;4172349;28;20041;-73
2023/08/26 07:12:38;;;;;;;8.00;7.20;;;;;;;19.46;100.00;98035.63;4171524;28;20086;-73
2023/08/26 07:14:38;;;;;;;9.73;7.97;;;;;;;19.49;100.00;98023.50;4158609;28;20820;-73
2023/08/26 07:16:38;;;;;;;10.60;8.32;;;;;;;19.58;100.00;98026.44;4172313;28;20116;-73
2023/08/26 07:18:39;;;;;;;10.52;7.70;;;;;;;19.63;100.00;98025.88;4172347;28;20122;-73
2023/08/26 07:20:39;;;;;;;9.63;6.82;;;;;;;19.77;100.00;98038.66;4173124;28;20041;-73
2023/08/26 07:22:40;;;;;;;10.98;6.10;;;;;;;19.87;100.00;98035.50;4171656;28;20419;-73
2023/08/26 07:24:40;;;;;;;9.45;6.60;;;;;;;19.98;100.00;98043.56;4172372;28;20044;-73
2023/08/26 07:26:40;;;;;;;8.50;6.40;;;;;;;20.03;100.00;98045.03;4172565;28;20556;-73
2023/08/26 07:28:41;;;;;;;9.43;6.15;;;;;;;20.12;100.00;98047.94;4172700;28;20072;-73
2023/08/26 07:30:41;;;;;;;9.27;6.80;;;;;;;20.16;100.00;98059.81;4172942;28;20595;-73
2023/08/26 07:32:41;;;;;;;11.13;6.70;;;;;;;20.29;100.00;98057.78;4171765;28;20045;-73
2023/08/26 07:34:42;;;;;;;9.07;6.40;;;;;;;20.39;100.00;98062.25;4171848;28;20041;-73
2023/08/26 07:36:42;;;;;;;7.93;6.78;;;;;;;20.26;100.00;98064.28;4172368;28;20041;-74
2023/08/26 07:38:43;;;;;;;9.68;6.85;;;;;;;20.16;100.00;98080.28;4172643;28;20087;-73
2023/08/26 07:40:43;;;;;;;9.05;7.50;;;;;;;20.18;100.00;98080.59;4172555;28;20115;-73
2023/08/26 07:42:44;;;;;;;10.63;7.32;;;;;;;20.23;100.00;98081.28;4172028;28;20045;-73
2023/08/26 07:44:45;;;;;;;7.55;6.28;;;;;;;20.32;100.00;98072.94;4172249;28;20388;-73
2023/08/26 07:46:45;;;;;;;10.43;6.68;;;;;;;20.40;100.00;98069.44;4172682;28;20422;-73
2023/08/26 07:48:45;;;;;;;9.70;5.80;;;;;;;20.37;100.00;98073.16;4172214;28;20052;-73
2023/08/26 07:50:46;;;;;;;7.57;5.50;;;;;;;20.34;100.00;98068.44;4171699;28;20131;-73
2023/08/26 07:52:46;;;;;;;10.93;5.72;;;;;;;20.23;100.00;98070.81;4171142;28;20164;-73
2023/08/26 07:54:46;;;;;;;9.32;6.43;;;;;;;20.05;100.00;98070.63;4172238;28;20555;-73
2023/08/26 07:56:47;;;;;;;7.50;5.55;;;;;;;19.91;100.00;98067.06;4172391;28;20102;-73
2023/08/26 07:58:48;;;;;;;8.10;6.05;;;;;;;20.00;100.00;98074.00;4172351;28;20146;-73
2023/08/26 08:00:49;;;;;;;6.85;5.40;;;;;;;20.11;100.00;98080.06;4172596;28;20215;-73
2023/08/26 08:02:49;;;;;;;10.55;6.22;;;;;;;20.08;100.00;98078.94;4171295;28;20080;-73
2023/08/26 08:04:50;;;;;;;12.13;7.15;;;;;;;20.17;100.00;98076.22;4171883;28;20045;-73
2023/08/26 08:06:50;;;;;;;11.45;5.03;;;;;;;20.18;100.00;98080.59;4172195;28;20485;-73
2023/08/26 08:08:51;;;;;;;7.45;4.97;;;;;;;20.15;100.00;98075.91;4163157;28;20461;-73
2023/08/26 08:10:52;;;;;;;6.78;4.45;;;;;;;20.16;100.00;98077.47;4171166;28;20288;-73
2023/08/26 08:12:52;;;;;;;7.80;4.50;;;;;;;20.15;100.00;98080.72;4171767;28;20194;-73
2023/08/26 08:14:52;;;;;;;6.97;5.03;;;;;;;20.11;100.00;98074.47;4172104;28;20091;-73
2023/08/26 08:16:52;;;;;;;6.55;4.63;;;;;;;20.15;100.00;98084.31;4172813;28;20036;-73
2023/08/26 08:18:53;;;;;;;6.22;4.40;;;;;;;20.19;100.00;98082.19;4171212;28;20456;-73
2023/08/26 08:20:54;;;;;;;6.85;3.92;;;;;;;20.18;100.00;98085.44;4171604;28;20045;-73
2023/08/26 08:22:55;;;;;;;5.53;4.22;;;;;;;20.19;100.00;98079.38;4175304;28;20090;-73
2023/08/26 08:24:55;;;;;;;9.95;4.65;;;;;;;20.19;100.00;98085.00;4175433;28;20037;-73
2023/08/26 08:26:55;;;;;;;9.68;4.47;;;;;;;20.22;100.00;98088.13;4160227;28;20382;-73
2023/08/26 08:28:56;;;;;;;7.40;4.57;;;;;;;20.24;100.00;98085.66;4175176;28;20083;-73
2023/08/26 08:30:56;;;;;;;8.45;4.03;;;;;;;20.29;100.00;98085.09;4175177;28;20033;-73
2023/08/26 08:32:57;;;;;;;9.05;3.90;;;;;;;20.32;100.00;98082.16;4174682;28;20049;-73
2023/08/26 08:34:57;;;;;;;5.53;4.10;;;;;;;20.37;100.00;98092.81;4174972;28;20044;-73
2023/08/26 08:36:57;;;;;;;6.05;3.78;;;;;;;20.39;100.00;98095.97;4175666;28;20045;-73
2023/08/26 08:38:58;;;;;;;5.30;4.00;;;;;;;20.42;100.00;98081.00;4174905;28;20394;-73
2023/08/26 08:40:59;;;;;;;7.18;4.18;;;;;;;20.40;100.00;98086.28;4174963;28;20160;-73
2023/08/26 08:43:02;;;;;;;7.47;4.20;;;;;;;20.45;100.00;98084.97;4174683;28;20123;-73
2023/08/26 08:45:06;;;;;;;8.52;4.10;;;;;;;20.44;100.00;98081.38;4175747;28;20052;-73
2023/08/26 08:47:06;;;;;;;6.47;3.88;;;;;;;20.45;100.00;98082.94;4174657;28;20037;-73
2023/08/26 08:49:07;;;;;;;5.35;4.03;;;;;;;20.52;100.00;98087.53;4174840;28;20499;-73
2023/08/26 08:51:10;;;;;;;5.85;4.30;;;;;;;20.68;100.00;98078.13;4174856;28;20053;-73
2023/08/26 08:53:11;;;;;;;7.72;4.80;;;;;;;20.73;100.00;98075.53;4174240;28;20408;-73
2023/08/26 08:55:11;;;;;;;4.93;3.90;;;;;;;20.79;100.00;98083.38;4175227;28;20064;-73
2023/08/26 08:57:15;;;;;;;5.82;3.92;;;;;;;20.80;100.00;98066.06;4174993;28;20044;-73
2023/08/26 08:59:17;;;;;;;5.50;3.50;;;;;;;20.88;100.00;98075.81;4174701;28;20083;-73
2023/08/26 09:01:20;;;;;;;7.57;4.00;;;;;;;20.93;100.00;98080.81;4175371;28;20045;-73
2023/08/26 09:03:23;;;;;;;5.57;4.13;;;;;;;21.11;100.00;98082.22;4173275;28;20072;-73
2023/08/26 09:05:25;;;;;;;5.60;3.78;;;;;;;21.21;100.00;98083.84;4174390;28;20049;-72
2023/08/26 09:07:26;;;;;;;5.95;3.90;;;;;;;21.13;100.00;98071.28;4174704;28;20041;-73
2023/08/26 09:09:27;;;;;;;6.88;4.43;;;;;;;20.85;100.00;98081.53;4174741;28;20060;-73
2023/08/26 09:11:27;;;;;;;7.00;4.43;;;;;;;20.79;100.00;98089.78;4173178;28;20396;-73
2023/08/26 09:13:28;;;;;;;6.38;4.10;;;;;;;20.78;100.00;98085.41;4173879;28;20045;-73
2023/08/26 09:15:28;;;;;;;5.70;4.38;;;;;;;20.85;100.00;98085.16;4160150;28;20065;-73
2023/08/26 09:17:29;;;;;;;5.00;4.10;;;;;;;20.86;100.00;98078.28;4174812;28;20040;-73
2023/08/26 09:19:30;;;;;;;6.30;3.92;;;;;;;20.68;100.00;98069.69;4173902;28;20052;-73
2023/08/26 09:21:31;;;;;;;8.98;4.45;;;;;;;20.69;100.00;98082.53;4174347;28;20049;-73